createdAt,value
2022-11-09T00:01:05.532Z,96549.00
2022-11-09T00:03:32.778Z,96552.00
2022-11-09T00:06:01.112Z,96551.00
2022-11-09T00:08:28.604Z,96549.00
2022-11-09T00:10:55.646Z,96558.00
2022-11-09T00:13:22.873Z,96555.00
2022-11-09T00:15:49.977Z,96552.00
2022-11-09T00:18:16.786Z,96547.00
2022-11-09T00:20:47.739Z,96546.00
2022-11-09T00:23:15.891Z,96539.00
2022-11-09T00:25:42.938Z,96543.00
2022-11-09T00:28:09.681Z,96553.00
2022-11-09T00:30:36.402Z,96540.00
2022-11-09T00:33:03.162Z,96548.00
2022-11-09T00:35:29.909Z,96545.00
2022-11-09T00:37:56.745Z,96548.00
2022-11-09T00:40:23.571Z,96537.00
2022-11-09T00:42:50.328Z,96544.00
2022-11-09T00:45:17.633Z,96548.00
2022-11-09T00:47:45.087Z,96547.00
2022-11-09T00:50:11.851Z,96546.00
2022-11-09T00:52:38.598Z,96551.00
2022-11-09T00:55:05.725Z,96559.00
2022-11-09T00:57:32.480Z,96564.00
2022-11-09T00:59:59.202Z,96560.00
2022-11-09T01:02:25.947Z,96560.00
2022-11-09T01:04:52.675Z,96571.00
2022-11-09T01:07:19.488Z,96579.00
2022-11-09T01:09:46.276Z,96587.00
2022-11-09T01:12:13.061Z,96592.00
2022-11-09T01:14:39.827Z,96596.00
2022-11-09T01:17:06.577Z,96603.00
2022-11-09T01:19:33.339Z,96601.00
2022-11-09T01:22:00.105Z,96603.00
2022-11-09T01:24:26.844Z,96611.00
2022-11-09T01:26:53.629Z,96617.00
2022-11-09T01:29:20.388Z,96615.00
2022-11-09T01:31:48.471Z,96608.00
2022-11-09T01:34:17.349Z,96607.00
2022-11-09T01:36:44.108Z,96607.00
2022-11-09T01:39:10.910Z,96608.00
2022-11-09T01:41:37.787Z,96607.00
2022-11-09T01:44:17.545Z,96606.00
2022-11-09T01:46:56.891Z,96604.00
2022-11-09T01:49:46.835Z,96613.00
2022-11-09T01:52:32.286Z,96611.00
2022-11-09T01:55:04.198Z,96608.00
2022-11-09T01:57:37.610Z,96619.00
2022-11-09T02:00:14.215Z,96615.00
2022-11-09T02:02:54.753Z,96618.00
2022-11-09T02:05:28.425Z,96623.00
2022-11-09T02:07:56.754Z,96624.00
2022-11-09T02:10:45.613Z,96618.00
2022-11-09T02:13:15.768Z,96625.00
2022-11-09T02:15:45.659Z,96626.00
2022-11-09T02:18:13.057Z,96627.00
2022-11-09T02:20:55.588Z,96628.00
2022-11-09T02:23:23.403Z,96630.00
2022-11-09T02:25:57.083Z,96628.00
2022-11-09T02:28:24.987Z,96623.00
2022-11-09T02:30:55.942Z,96625.00
2022-11-09T02:33:23.769Z,96627.00
2022-11-09T02:35:50.804Z,96628.00
2022-11-09T02:38:17.610Z,96621.00
2022-11-09T02:40:50.043Z,96621.00
2022-11-09T02:43:19.035Z,96621.00
2022-11-09T02:45:46.066Z,96618.00
2022-11-09T02:48:12.892Z,96605.00
2022-11-09T02:50:39.634Z,96609.00
2022-11-09T02:53:06.547Z,96601.00
2022-11-09T02:55:33.319Z,96607.00
2022-11-09T02:58:31.914Z,96606.00
2022-11-09T03:01:25.063Z,96601.00
2022-11-09T03:04:24.681Z,96605.00
2022-11-09T03:07:26.897Z,96615.00
2022-11-09T03:10:25.466Z,96618.00
2022-11-09T03:13:24.437Z,96639.00
2022-11-09T03:16:25.071Z,96640.00
2022-11-09T03:19:25.664Z,96641.00
2022-11-09T03:22:25.118Z,96651.00
2022-11-09T03:24:51.910Z,96647.00
2022-11-09T03:27:18.667Z,96650.00
2022-11-09T03:29:59.737Z,96647.00
2022-11-09T03:32:40.746Z,96648.00
2022-11-09T03:35:51.333Z,96643.00
2022-11-09T03:38:50.733Z,96648.00
2022-11-09T03:41:49.267Z,96639.00
2022-11-09T03:44:50.442Z,96647.00
2022-11-09T03:47:17.204Z,96635.00
2022-11-09T03:49:43.969Z,96637.00
2022-11-09T03:52:10.720Z,96637.00
2022-11-09T03:54:37.450Z,96640.00
2022-11-09T03:57:04.240Z,96625.00
2022-11-09T03:59:30.988Z,96628.00
2022-11-09T04:01:57.875Z,96616.00
2022-11-09T04:04:24.759Z,96634.00
2022-11-09T04:06:51.934Z,96626.00
2022-11-09T04:09:18.696Z,96621.00
2022-11-09T04:11:45.446Z,96629.00
2022-11-09T04:14:12.217Z,96621.00
2022-11-09T04:16:39.310Z,96620.00
2022-11-09T04:19:06.040Z,96615.00
2022-11-09T04:21:34.086Z,96613.00
2022-11-09T04:24:00.878Z,96610.00
2022-11-09T04:26:27.642Z,96607.00
2022-11-09T04:28:54.362Z,96607.00
2022-11-09T04:31:24.259Z,96613.00
2022-11-09T04:33:54.639Z,96609.00
2022-11-09T04:36:21.457Z,96604.00
2022-11-09T04:38:48.230Z,96590.00
2022-11-09T04:41:15.125Z,96592.00
2022-11-09T04:43:42.547Z,96600.00
2022-11-09T04:46:09.354Z,96605.00
2022-11-09T04:48:36.187Z,96598.00
2022-11-09T04:51:10.379Z,96586.00
2022-11-09T04:53:37.940Z,96580.00
2022-11-09T04:56:06.171Z,96579.00
2022-11-09T04:58:33.971Z,96581.00
2022-11-09T05:01:07.697Z,96578.00
2022-11-09T05:03:34.912Z,96598.00
2022-11-09T05:06:21.907Z,96603.00
2022-11-09T05:08:49.154Z,96597.00
2022-11-09T05:11:16.051Z,96606.00
2022-11-09T05:13:42.834Z,96597.00
2022-11-09T05:16:09.774Z,96597.00
2022-11-09T05:18:36.495Z,96588.00
2022-11-09T05:21:04.262Z,96608.00
2022-11-09T05:23:50.426Z,96599.00
2022-11-09T05:26:17.181Z,96588.00
2022-11-09T05:28:44.823Z,96603.00
2022-11-09T05:31:11.647Z,96600.00
2022-11-09T05:33:38.370Z,96612.00
2022-11-09T05:36:05.698Z,96610.00
2022-11-09T05:38:32.663Z,96617.00
2022-11-09T05:40:59.437Z,96625.00
2022-11-09T05:43:26.212Z,96628.00
2022-11-09T05:45:53.005Z,96633.00
2022-11-09T05:48:19.773Z,96642.00
2022-11-09T05:50:46.528Z,96638.00
2022-11-09T05:53:13.318Z,96632.00
2022-11-09T05:55:40.469Z,96638.00
2022-11-09T05:58:07.836Z,96630.00
2022-11-09T06:00:34.919Z,96628.00
2022-11-09T06:03:07.293Z,96627.00
2022-11-09T06:05:36.007Z,96633.00
2022-11-09T06:08:10.144Z,96634.00
2022-11-09T06:10:37.138Z,96642.00
2022-11-09T06:13:03.896Z,96647.00
2022-11-09T06:15:30.969Z,96658.00
2022-11-09T06:17:58.460Z,96658.00
2022-11-09T06:20:27.209Z,96660.00
2022-11-09T06:23:03.385Z,96654.00
2022-11-09T06:25:34.275Z,96666.00
2022-11-09T06:28:01.511Z,96659.00
2022-11-09T06:30:28.349Z,96662.00
2022-11-09T06:33:03.198Z,96661.00
2022-11-09T06:35:30.749Z,96662.00
2022-11-09T06:37:59.911Z,96667.00
2022-11-09T06:40:27.702Z,96668.00
2022-11-09T06:43:00.541Z,96670.00
2022-11-09T06:45:29.064Z,96681.00
2022-11-09T06:48:01.859Z,96693.00
2022-11-09T06:50:32.112Z,96696.00
2022-11-09T06:53:06.577Z,96714.00
2022-11-09T06:55:35.348Z,96734.00
2022-11-09T06:58:07.516Z,96743.00
2022-11-09T07:00:34.497Z,96752.00
2022-11-09T07:03:01.658Z,96766.00
2022-11-09T07:05:28.489Z,96763.00
2022-11-09T07:07:55.312Z,96754.00
2022-11-09T07:10:22.110Z,96749.00
2022-11-09T07:12:48.839Z,96750.00
2022-11-09T07:15:15.753Z,96741.00
2022-11-09T07:17:42.819Z,96741.00
2022-11-09T07:20:11.118Z,96735.00
2022-11-09T07:22:41.721Z,96735.00
2022-11-09T07:25:11.710Z,96743.00
2022-11-09T07:27:38.483Z,96741.00
2022-11-09T07:30:05.865Z,96730.00
2022-11-09T07:35:23.864Z,96739.00
2022-11-09T07:37:50.602Z,96743.00
2022-11-09T07:40:17.408Z,96733.00
2022-11-09T07:42:44.190Z,96741.00
2022-11-09T07:45:11.409Z,96740.00
2022-11-09T07:47:38.340Z,96742.00
2022-11-09T07:50:05.797Z,96739.00
2022-11-09T07:52:32.580Z,96740.00
2022-11-09T07:54:59.310Z,96749.00
2022-11-09T07:57:26.046Z,96739.00
2022-11-09T07:59:53.512Z,96731.00
2022-11-09T08:02:20.355Z,96725.00
2022-11-09T08:04:47.161Z,96728.00
2022-11-09T08:07:13.903Z,96730.00
2022-11-09T08:09:40.683Z,96735.00
2022-11-09T08:12:07.505Z,96733.00
2022-11-09T08:14:34.739Z,96735.00
2022-11-09T08:17:01.487Z,96734.00
2022-11-09T08:19:28.209Z,96743.00
2022-11-09T08:21:57.329Z,96741.00
2022-11-09T08:24:24.581Z,96743.00
2022-11-09T08:26:51.347Z,96747.00
2022-11-09T08:29:18.157Z,96734.00
2022-11-09T08:31:44.906Z,96733.00
2022-11-09T08:34:15.000Z,96734.00
2022-11-09T08:36:41.779Z,96735.00
2022-11-09T08:39:09.297Z,96741.00
2022-11-09T08:41:36.929Z,96725.00
2022-11-09T08:44:03.778Z,96722.00
2022-11-09T08:46:30.537Z,96724.00
2022-11-09T08:48:57.256Z,96728.00
2022-11-09T08:51:24.080Z,96725.00
2022-11-09T08:53:51.460Z,96732.00
2022-11-09T08:56:19.017Z,96720.00
2022-11-09T08:58:46.449Z,96725.00
2022-11-09T09:01:16.943Z,96725.00
2022-11-09T09:03:44.498Z,96734.00
2022-11-09T09:06:11.260Z,96733.00
2022-11-09T09:08:38.071Z,96743.00
2022-11-09T09:11:06.111Z,96752.00
2022-11-09T09:13:33.375Z,96742.00
2022-11-09T09:16:13.537Z,96749.00
2022-11-09T09:18:40.320Z,96757.00
2022-11-09T09:21:09.505Z,96754.00
2022-11-09T09:23:37.162Z,96751.00
2022-11-09T09:26:04.251Z,96745.00
2022-11-09T09:28:31.162Z,96743.00
2022-11-09T09:31:02.232Z,96747.00
2022-11-09T09:33:29.463Z,96753.00
2022-11-09T09:35:59.743Z,96750.00
2022-11-09T09:38:27.964Z,96759.00
2022-11-09T09:41:00.418Z,96744.00
2022-11-09T09:43:42.743Z,96745.00
2022-11-09T09:46:40.301Z,96752.00
2022-11-09T09:49:23.853Z,96755.00
2022-11-09T09:51:59.663Z,96757.00
2022-11-09T09:54:34.516Z,96758.00
2022-11-09T09:57:02.279Z,96758.00
2022-11-09T09:59:45.094Z,96764.00
2022-11-09T10:02:35.737Z,96774.00
2022-11-09T10:05:09.362Z,96763.00
2022-11-09T10:08:10.770Z,96767.00
2022-11-09T10:10:56.208Z,96766.00
2022-11-09T10:14:15.599Z,96775.00
2022-11-09T10:17:26.159Z,96773.00
2022-11-09T10:20:04.629Z,96774.00
2022-11-09T10:23:01.763Z,96769.00
2022-11-09T10:26:02.174Z,96769.00
2022-11-09T10:28:18.406Z,96766.00
2022-11-09T10:30:46.197Z,96771.00
2022-11-09T10:33:21.284Z,96764.00
2022-11-09T10:36:08.547Z,96765.00
2022-11-09T10:38:49.134Z,96765.00
2022-11-09T10:41:46.288Z,96753.00
2022-11-09T10:44:19.298Z,96757.00
2022-11-09T10:47:26.278Z,96752.00
2022-11-09T10:50:15.569Z,96743.00
2022-11-09T10:52:47.209Z,96752.00
2022-11-09T10:55:28.141Z,96749.00
2022-11-09T10:58:19.510Z,96764.00
2022-11-09T11:01:03.650Z,96753.00
2022-11-09T11:03:35.603Z,96750.00
2022-11-09T11:06:09.247Z,96754.00
2022-11-09T11:08:43.498Z,96750.00
2022-11-09T11:11:37.822Z,96759.00
2022-11-09T11:14:34.374Z,96758.00
2022-11-09T11:17:01.489Z,96757.00
2022-11-09T11:19:39.801Z,96749.00
2022-11-09T11:22:12.679Z,96753.00
2022-11-09T11:25:00.915Z,96748.00
2022-11-09T11:27:33.138Z,96755.00
2022-11-09T11:30:06.690Z,96749.00
2022-11-09T11:32:33.564Z,96756.00
2022-11-09T11:35:01.609Z,96740.00
2022-11-09T11:37:54.973Z,96742.00
2022-11-09T11:40:46.009Z,96743.00
2022-11-09T11:43:46.453Z,96739.00
2022-11-09T11:47:00.639Z,96733.00
2022-11-09T11:50:20.101Z,96740.00
2022-11-09T11:53:17.260Z,96736.00
2022-11-09T11:56:04.862Z,96741.00
2022-11-09T11:59:02.929Z,96735.00
2022-11-09T12:01:42.746Z,96733.00
2022-11-09T12:04:44.313Z,96731.00
2022-11-09T12:08:07.091Z,96731.00
2022-11-09T12:11:13.632Z,96730.00
2022-11-09T12:14:10.021Z,96724.00
2022-11-09T12:17:12.298Z,96728.00
2022-11-09T12:19:59.347Z,96728.00
2022-11-09T12:22:45.483Z,96729.00
2022-11-09T12:25:38.301Z,96722.00
2022-11-09T12:28:25.797Z,96734.00
2022-11-09T12:31:01.673Z,96732.00
2022-11-09T12:33:44.362Z,96731.00
2022-11-09T12:36:24.573Z,96736.00
2022-11-09T12:39:00.321Z,96744.00
2022-11-09T12:41:34.976Z,96744.00
2022-11-09T12:44:17.122Z,96733.00
2022-11-09T12:46:50.173Z,96742.00
2022-11-09T12:49:40.547Z,96746.00
2022-11-09T12:52:19.284Z,96734.00
2022-11-09T12:54:49.013Z,96741.00
2022-11-09T12:57:25.070Z,96748.00
2022-11-09T12:59:57.983Z,96740.00
2022-11-09T13:02:32.349Z,96744.00
2022-11-09T13:05:06.349Z,96746.00
2022-11-09T13:07:51.504Z,96744.00
2022-11-09T13:10:45.044Z,96746.00
2022-11-09T13:13:13.380Z,96753.00
2022-11-09T13:16:11.289Z,96751.00
2022-11-09T13:19:06.079Z,96756.00
2022-11-09T13:22:19.213Z,96759.00
2022-11-09T13:24:59.839Z,96765.00
2022-11-09T13:27:47.172Z,96766.00
2022-11-09T13:30:28.240Z,96764.00
2022-11-09T13:33:06.836Z,96773.00
2022-11-09T13:35:42.616Z,96769.00
2022-11-09T13:38:27.028Z,96765.00
2022-11-09T13:40:59.319Z,96771.00
2022-11-09T13:43:26.898Z,96774.00
2022-11-09T13:46:25.053Z,96777.00
2022-11-09T13:48:55.593Z,96780.00
2022-11-09T13:51:35.656Z,96782.00
2022-11-09T13:54:29.565Z,96782.00
2022-11-09T13:56:57.268Z,96788.00
2022-11-09T13:59:33.422Z,96785.00
2022-11-09T14:02:02.102Z,96798.00
2022-11-09T14:04:35.620Z,96802.00
2022-11-09T14:07:29.075Z,96799.00
2022-11-09T14:10:32.871Z,96808.00
2022-11-09T14:13:11.387Z,96806.00
2022-11-09T14:15:45.727Z,96808.00
2022-11-09T14:18:34.045Z,96812.00
2022-11-09T14:21:48.083Z,96822.00
2022-11-09T14:24:29.656Z,96820.00
2022-11-09T14:27:10.246Z,96829.00
2022-11-09T14:30:00.931Z,96826.00
2022-11-09T14:32:36.329Z,96828.00
2022-11-09T14:35:32.410Z,96823.00
2022-11-09T14:38:02.606Z,96824.00
2022-11-09T14:40:32.004Z,96842.00
2022-11-09T14:43:44.210Z,96838.00
2022-11-09T14:46:29.286Z,96831.00
2022-11-09T14:49:01.169Z,96829.00
2022-11-09T14:51:38.306Z,96834.00
2022-11-09T14:54:13.348Z,96846.00
2022-11-09T14:56:42.526Z,96832.00
2022-11-09T14:59:26.267Z,96847.00
2022-11-09T15:02:04.295Z,96846.00
2022-11-09T15:04:31.439Z,96844.00
2022-11-09T15:07:04.345Z,96840.00
2022-11-09T15:09:48.105Z,96834.00
2022-11-09T15:12:17.314Z,96838.00
2022-11-09T15:15:01.395Z,96844.00
2022-11-09T15:17:32.314Z,96838.00
2022-11-09T15:20:31.302Z,96843.00
2022-11-09T15:23:25.093Z,96837.00
2022-11-09T15:25:56.224Z,96835.00
2022-11-09T15:28:27.352Z,96822.00
2022-11-09T15:30:54.047Z,96826.00
2022-11-09T15:33:38.850Z,96835.00
2022-11-09T15:36:19.707Z,96828.00
2022-11-09T15:39:02.426Z,96843.00
2022-11-09T15:41:29.531Z,96852.00
2022-11-09T15:43:56.385Z,96852.00
2022-11-09T15:46:30.005Z,96849.00
2022-11-09T15:49:27.413Z,96846.00
2022-11-09T15:51:55.150Z,96844.00
2022-11-09T15:54:24.219Z,96852.00
2022-11-09T15:56:51.376Z,96859.00
2022-11-09T15:59:26.075Z,96872.00
2022-11-09T16:01:53.220Z,96859.00
2022-11-09T16:04:20.021Z,96861.00
2022-11-09T16:06:47.228Z,96871.00
2022-11-09T16:09:15.054Z,96867.00
2022-11-09T16:11:42.097Z,96873.00
2022-11-09T16:14:08.867Z,96867.00
2022-11-09T16:16:35.664Z,96868.00
2022-11-09T16:19:02.453Z,96881.00
2022-11-09T16:21:29.276Z,96883.00
2022-11-09T16:23:58.693Z,96885.00
2022-11-09T16:26:25.963Z,96889.00
2022-11-09T16:28:54.560Z,96901.00
2022-11-09T16:31:41.169Z,96896.00
2022-11-09T16:34:08.222Z,96904.00
2022-11-09T16:36:37.131Z,96908.00
2022-11-09T16:39:09.312Z,96909.00
2022-11-09T16:41:40.799Z,96908.00
2022-11-09T16:44:07.649Z,96913.00
2022-11-09T16:46:35.026Z,96922.00
2022-11-09T16:49:02.760Z,96915.00
2022-11-09T16:51:30.263Z,96924.00
2022-11-09T16:53:57.043Z,96922.00
2022-11-09T16:56:24.141Z,96918.00
2022-11-09T16:58:51.007Z,96919.00
2022-11-09T17:01:22.217Z,96919.00
2022-11-09T17:03:50.375Z,96918.00
2022-11-09T17:06:17.250Z,96929.00
2022-11-09T17:08:43.997Z,96934.00
2022-11-09T17:11:17.580Z,96940.00
2022-11-09T17:13:44.392Z,96934.00
2022-11-09T17:16:13.353Z,96944.00
2022-11-09T17:18:42.707Z,96945.00
2022-11-09T17:21:12.061Z,96954.00
2022-11-09T17:23:39.154Z,96953.00
2022-11-09T17:26:08.231Z,96956.00
2022-11-09T17:28:41.476Z,96960.00
2022-11-09T17:31:23.105Z,96969.00
2022-11-09T17:33:50.076Z,96972.00
2022-11-09T17:36:29.881Z,96987.00
2022-11-09T17:39:06.217Z,96985.00
2022-11-09T17:41:33.013Z,96984.00
2022-11-09T17:44:02.845Z,96997.00
2022-11-09T17:46:29.650Z,97002.00
2022-11-09T17:48:56.430Z,96999.00
2022-11-09T17:51:23.639Z,97009.00
2022-11-09T17:53:50.783Z,97009.00
2022-11-09T17:56:17.544Z,97006.00
2022-11-09T17:58:45.593Z,97007.00
2022-11-09T18:01:16.389Z,97010.00
2022-11-09T18:03:43.565Z,97017.00
2022-11-09T18:06:14.071Z,97020.00
2022-11-09T18:08:41.273Z,97017.00
2022-11-09T18:11:08.931Z,97024.00
2022-11-09T18:13:36.198Z,97021.00
2022-11-09T18:16:17.902Z,97019.00
2022-11-09T18:18:45.394Z,97021.00
2022-11-09T18:21:16.608Z,97022.00
2022-11-09T18:23:44.930Z,97030.00
2022-11-09T18:26:13.394Z,97039.00
2022-11-09T18:28:40.150Z,97039.00
2022-11-09T18:31:11.100Z,97042.00
2022-11-09T18:33:39.890Z,97042.00
2022-11-09T18:36:11.382Z,97036.00
2022-11-09T18:38:39.485Z,97045.00
2022-11-09T18:41:08.919Z,97040.00
2022-11-09T18:43:36.063Z,97046.00
2022-11-09T18:46:09.265Z,97044.00
2022-11-09T18:48:37.569Z,97049.00
2022-11-09T18:51:06.490Z,97051.00
2022-11-09T18:53:40.006Z,97051.00
2022-11-09T18:56:23.033Z,97060.00
2022-11-09T18:58:55.819Z,97058.00
2022-11-09T19:01:24.950Z,97059.00
2022-11-09T19:03:57.763Z,97060.00
2022-11-09T19:06:26.837Z,97069.00
2022-11-09T19:09:11.950Z,97068.00
2022-11-09T19:11:38.967Z,97069.00
2022-11-09T19:14:05.951Z,97073.00
2022-11-09T19:16:32.830Z,97067.00
2022-11-09T19:18:59.658Z,97065.00
2022-11-09T19:21:44.589Z,97056.00
2022-11-09T19:24:17.802Z,97059.00
2022-11-09T19:26:45.403Z,97061.00
2022-11-09T19:29:14.343Z,97063.00
2022-11-09T19:31:43.239Z,97066.00
2022-11-09T19:34:21.295Z,97068.00
2022-11-09T19:36:48.559Z,97077.00
2022-11-09T19:39:16.322Z,97077.00
2022-11-09T19:41:43.683Z,97080.00
2022-11-09T19:44:12.998Z,97082.00
2022-11-09T19:46:39.958Z,97085.00
2022-11-09T19:49:07.529Z,97089.00
2022-11-09T19:51:34.875Z,97101.00
2022-11-09T19:54:04.259Z,97099.00
2022-11-09T19:56:33.039Z,97103.00
2022-11-09T19:59:01.950Z,97105.00
2022-11-09T20:01:30.675Z,97112.00
2022-11-09T20:04:00.499Z,97114.00
2022-11-09T20:06:28.565Z,97117.00
2022-11-09T20:08:56.029Z,97113.00
2022-11-09T20:11:51.181Z,97122.00
2022-11-09T20:14:25.411Z,97123.00
2022-11-09T20:17:03.041Z,97124.00
2022-11-09T20:19:32.225Z,97131.00
2022-11-09T20:22:11.385Z,97127.00
2022-11-09T20:24:50.085Z,97135.00
2022-11-09T20:31:59.861Z,97148.00
2022-11-09T20:35:00.262Z,97156.00
2022-11-09T20:37:59.242Z,97152.00
2022-11-09T20:40:26.001Z,97158.00
2022-11-09T20:42:52.867Z,97161.00
2022-11-09T20:45:19.652Z,97166.00
2022-11-09T20:50:33.762Z,97183.00
2022-11-09T20:53:00.503Z,97186.00
2022-11-09T20:55:27.280Z,97189.00
2022-11-09T20:57:54.601Z,97183.00
2022-11-09T21:00:24.405Z,97185.00
2022-11-09T21:02:51.491Z,97195.00
2022-11-09T21:05:18.280Z,97196.00
2022-11-09T21:07:45.418Z,97212.00
2022-11-09T21:10:12.149Z,97209.00
2022-11-09T21:12:38.903Z,97209.00
2022-11-09T21:15:06.642Z,97213.00
2022-11-09T21:17:34.327Z,97209.00
2022-11-09T21:20:01.057Z,97212.00
2022-11-09T21:22:47.750Z,97211.00
2022-11-09T21:25:33.139Z,97221.00
2022-11-09T21:28:18.624Z,97229.00
2022-11-09T21:30:45.491Z,97236.00
2022-11-09T21:33:12.253Z,97233.00
2022-11-09T21:35:38.970Z,97239.00
2022-11-09T21:38:05.706Z,97240.00
2022-11-09T21:40:32.433Z,97239.00
2022-11-09T21:42:59.153Z,97245.00
2022-11-09T21:45:25.957Z,97246.00
2022-11-09T21:47:54.537Z,97261.00
2022-11-09T21:50:21.285Z,97252.00
2022-11-09T21:52:48.005Z,97262.00
2022-11-09T21:55:14.863Z,97258.00
2022-11-09T21:57:42.343Z,97261.00
2022-11-09T22:00:10.750Z,97267.00
2022-11-09T22:02:37.469Z,97264.00
2022-11-09T22:05:04.658Z,97254.00
2022-11-09T22:07:31.387Z,97256.00
2022-11-09T22:10:10.003Z,97253.00
2022-11-09T22:12:56.907Z,97259.00
2022-11-09T22:15:42.325Z,97259.00
2022-11-09T22:18:29.024Z,97271.00
2022-11-09T22:20:56.747Z,97255.00
2022-11-09T22:23:23.663Z,97261.00
2022-11-09T22:25:50.620Z,97263.00
2022-11-09T22:28:17.506Z,97269.00
2022-11-09T22:30:44.220Z,97280.00
2022-11-09T22:33:11.003Z,97271.00
2022-11-09T22:35:37.726Z,97267.00
2022-11-09T22:38:04.486Z,97284.00
2022-11-09T22:40:31.224Z,97289.00
2022-11-09T22:42:58.245Z,97293.00
2022-11-09T22:45:25.082Z,97302.00
2022-11-09T22:47:51.818Z,97309.00
2022-11-09T22:50:18.618Z,97318.00
2022-11-09T22:52:45.348Z,97316.00
2022-11-09T22:55:12.102Z,97312.00
2022-11-09T22:57:38.817Z,97306.00
2022-11-09T23:00:06.432Z,97323.00
2022-11-09T23:02:33.160Z,97315.00
2022-11-09T23:04:59.894Z,97323.00
2022-11-09T23:07:26.629Z,97325.00
2022-11-09T23:09:53.499Z,97325.00
2022-11-09T23:12:20.212Z,97328.00
2022-11-09T23:15:04.898Z,97333.00
2022-11-09T23:18:00.111Z,97335.00
2022-11-09T23:20:31.206Z,97341.00
2022-11-09T23:23:01.040Z,97345.00
2022-11-09T23:25:46.236Z,97341.00
2022-11-09T23:28:13.560Z,97344.00
2022-11-09T23:30:40.584Z,97345.00
2022-11-09T23:33:07.864Z,97336.00
2022-11-09T23:35:35.324Z,97347.00
2022-11-09T23:38:04.490Z,97353.00
2022-11-09T23:40:33.813Z,97356.00
2022-11-09T23:43:10.339Z,97355.00
2022-11-09T23:45:39.339Z,97358.00
2022-11-09T23:48:07.422Z,97360.00
2022-11-09T23:50:34.210Z,97359.00
2022-11-09T23:53:01.345Z,97361.00
2022-11-09T23:55:29.534Z,97365.00
2022-11-09T23:57:56.487Z,97368.00
